sensor_id;sensor_type;location;lat;lon;timestamp;temperature;humidity
63771;DHT22;60282;43.862;18.430;2022-10-31T00:01:01;10.30;99.90
63771;DHT22;60282;43.862;18.430;2022-10-31T00:03:27;10.40;99.90
63771;DHT22;60282;43.862;18.430;2022-10-31T00:05:53;10.20;99.90
63771;DHT22;60282;43.862;18.430;2022-10-31T00:08:20;10.10;99.90
63771;DHT22;60282;43.862;18.430;2022-10-31T00:10:47;10.10;99.90
63771;DHT22;60282;43.862;18.430;2022-10-31T00:13:14;10.10;99.90
63771;DHT22;60282;43.862;18.430;2022-10-31T00:15:43;10.10;99.90
63771;DHT22;60282;43.862;18.430;2022-10-31T00:18:11;11.20;99.90
63771;DHT22;60282;43.862;18.430;2022-10-31T00:20:37;10.10;99.90
63771;DHT22;60282;43.862;18.430;2022-10-31T00:23:04;10.10;99.90
63771;DHT22;60282;43.862;18.430;2022-10-31T00:25:37;10.10;99.90
63771;DHT22;60282;43.862;18.430;2022-10-31T00:28:05;10.10;99.90
63771;DHT22;60282;43.862;18.430;2022-10-31T00:30:33;10.00;99.90
63771;DHT22;60282;43.862;18.430;2022-10-31T00:32:59;10.10;99.90
63771;DHT22;60282;43.862;18.430;2022-10-31T00:35:24;10.00;99.90
63771;DHT22;60282;43.862;18.430;2022-10-31T00:37:51;10.00;99.90
63771;DHT22;60282;43.862;18.430;2022-10-31T00:40:18;10.00;99.90
63771;DHT22;60282;43.862;18.430;2022-10-31T00:42:44;10.00;99.90
63771;DHT22;60282;43.862;18.430;2022-10-31T00:45:18;10.00;99.90
63771;DHT22;60282;43.862;18.430;2022-10-31T00:47:44;9.90;99.90
63771;DHT22;60282;43.862;18.430;2022-10-31T00:50:10;9.80;99.90
63771;DHT22;60282;43.862;18.430;2022-10-31T00:52:36;9.90;99.90
63771;DHT22;60282;43.862;18.430;2022-10-31T00:55:01;9.90;99.90
63771;DHT22;60282;43.862;18.430;2022-10-31T00:57:27;9.90;99.90
63771;DHT22;60282;43.862;18.430;2022-10-31T00:59:53;9.80;99.90
63771;DHT22;60282;43.862;18.430;2022-10-31T01:02:20;9.80;99.90
63771;DHT22;60282;43.862;18.430;2022-10-31T01:04:46;9.70;99.90
63771;DHT22;60282;43.862;18.430;2022-10-31T01:07:11;9.70;99.90
63771;DHT22;60282;43.862;18.430;2022-10-31T01:09:39;9.70;99.90
63771;DHT22;60282;43.862;18.430;2022-10-31T01:12:05;9.70;99.90
63771;DHT22;60282;43.862;18.430;2022-10-31T01:14:31;9.70;99.90
63771;DHT22;60282;43.862;18.430;2022-10-31T01:16:56;9.70;99.90
63771;DHT22;60282;43.862;18.430;2022-10-31T01:19:22;9.70;99.90
63771;DHT22;60282;43.862;18.430;2022-10-31T01:21:48;9.60;99.90
63771;DHT22;60282;43.862;18.430;2022-10-31T01:24:13;9.60;99.90
63771;DHT22;60282;43.862;18.430;2022-10-31T01:26:39;9.60;99.90
63771;DHT22;60282;43.862;18.430;2022-10-31T01:29:07;9.60;99.90
63771;DHT22;60282;43.862;18.430;2022-10-31T01:31:36;9.50;99.90
63771;DHT22;60282;43.862;18.430;2022-10-31T01:34:04;9.50;99.90
63771;DHT22;60282;43.862;18.430;2022-10-31T01:36:42;9.50;99.90
63771;DHT22;60282;43.862;18.430;2022-10-31T01:39:14;9.40;99.90
63771;DHT22;60282;43.862;18.430;2022-10-31T01:41:44;9.40;99.90
63771;DHT22;60282;43.862;18.430;2022-10-31T01:49:29;9.30;99.90
63771;DHT22;60282;43.862;18.430;2022-10-31T01:57:26;9.30;99.90
63771;DHT22;60282;43.862;18.430;2022-10-31T01:59:57;9.30;99.90
63771;DHT22;60282;43.862;18.430;2022-10-31T02:02:26;9.30;99.90
63771;DHT22;60282;43.862;18.430;2022-10-31T02:04:53;9.20;99.90
63771;DHT22;60282;43.862;18.430;2022-10-31T02:07:41;9.20;99.90
63771;DHT22;60282;43.862;18.430;2022-10-31T02:10:08;9.20;99.90
63771;DHT22;60282;43.862;18.430;2022-10-31T02:12:38;9.20;99.90
63771;DHT22;60282;43.862;18.430;2022-10-31T02:15:04;9.10;99.90
63771;DHT22;60282;43.862;18.430;2022-10-31T02:17:32;9.10;99.90
63771;DHT22;60282;43.862;18.430;2022-10-31T02:32:03;9.10;99.90
63771;DHT22;60282;43.862;18.430;2022-10-31T02:35:08;9.10;99.90
63771;DHT22;60282;43.862;18.430;2022-10-31T02:37:41;9.00;99.90
63771;DHT22;60282;43.862;18.430;2022-10-31T02:42:59;9.10;99.90
63771;DHT22;60282;43.862;18.430;2022-10-31T02:46:03;9.00;99.90
63771;DHT22;60282;43.862;18.430;2022-10-31T02:48:34;9.00;99.90
63771;DHT22;60282;43.862;18.430;2022-10-31T02:51:04;9.00;99.90
63771;DHT22;60282;43.862;18.430;2022-10-31T02:53:36;9.00;99.90
63771;DHT22;60282;43.862;18.430;2022-10-31T02:58:42;8.90;99.90
63771;DHT22;60282;43.862;18.430;2022-10-31T03:12:07;8.90;99.90
63771;DHT22;60282;43.862;18.430;2022-10-31T03:17:37;8.90;99.90
63771;DHT22;60282;43.862;18.430;2022-10-31T03:20:10;8.90;99.90
63771;DHT22;60282;43.862;18.430;2022-10-31T03:22:38;8.90;99.90
63771;DHT22;60282;43.862;18.430;2022-10-31T03:25:07;8.80;99.90
63771;DHT22;60282;43.862;18.430;2022-10-31T03:27:39;8.80;99.90
63771;DHT22;60282;43.862;18.430;2022-10-31T03:30:13;8.70;99.90
63771;DHT22;60282;43.862;18.430;2022-10-31T03:32:49;8.80;99.90
63771;DHT22;60282;43.862;18.430;2022-10-31T03:35:34;8.70;99.90
63771;DHT22;60282;43.862;18.430;2022-10-31T03:38:02;8.70;99.90
63771;DHT22;60282;43.862;18.430;2022-10-31T03:40:30;8.70;99.90
63771;DHT22;60282;43.862;18.430;2022-10-31T03:43:05;8.70;99.90
63771;DHT22;60282;43.862;18.430;2022-10-31T03:45:38;8.60;99.90
63771;DHT22;60282;43.862;18.430;2022-10-31T03:48:06;10.60;99.90
63771;DHT22;60282;43.862;18.430;2022-10-31T03:50:45;8.60;99.90
63771;DHT22;60282;43.862;18.430;2022-10-31T03:56:02;8.60;99.90
63771;DHT22;60282;43.862;18.430;2022-10-31T03:58:36;8.50;99.90
63771;DHT22;60282;43.862;18.430;2022-10-31T04:01:12;8.50;99.90
63771;DHT22;60282;43.862;18.430;2022-10-31T04:03:40;8.60;99.90
63771;DHT22;60282;43.862;18.430;2022-10-31T04:06:12;8.20;99.90
63771;DHT22;60282;43.862;18.430;2022-10-31T04:09:05;8.60;99.90
63771;DHT22;60282;43.862;18.430;2022-10-31T04:11:43;8.50;99.90
63771;DHT22;60282;43.862;18.430;2022-10-31T04:14:11;8.40;99.90
63771;DHT22;60282;43.862;18.430;2022-10-31T04:16:41;8.50;99.90
63771;DHT22;60282;43.862;18.430;2022-10-31T04:19:08;8.50;99.90
63771;DHT22;60282;43.862;18.430;2022-10-31T04:21:34;8.50;99.90
63771;DHT22;60282;43.862;18.430;2022-10-31T04:23:59;8.40;99.90
63771;DHT22;60282;43.862;18.430;2022-10-31T04:26:25;8.30;99.90
63771;DHT22;60282;43.862;18.430;2022-10-31T04:28:52;8.30;99.90
63771;DHT22;60282;43.862;18.430;2022-10-31T04:31:18;8.40;99.90
63771;DHT22;60282;43.862;18.430;2022-10-31T04:33:44;8.30;99.90
63771;DHT22;60282;43.862;18.430;2022-10-31T04:36:10;8.40;99.90
63771;DHT22;60282;43.862;18.430;2022-10-31T04:38:36;8.40;99.90
63771;DHT22;60282;43.862;18.430;2022-10-31T04:41:01;8.40;99.90
63771;DHT22;60282;43.862;18.430;2022-10-31T04:43:27;8.30;99.90
63771;DHT22;60282;43.862;18.430;2022-10-31T04:45:53;8.30;99.90
63771;DHT22;60282;43.862;18.430;2022-10-31T04:48:19;8.20;99.90
63771;DHT22;60282;43.862;18.430;2022-10-31T04:50:45;8.20;99.90
63771;DHT22;60282;43.862;18.430;2022-10-31T04:53:14;8.20;99.90
63771;DHT22;60282;43.862;18.430;2022-10-31T04:55:40;8.10;99.90
63771;DHT22;60282;43.862;18.430;2022-10-31T04:58:06;8.20;99.90
63771;DHT22;60282;43.862;18.430;2022-10-31T05:00:32;8.10;99.90
63771;DHT22;60282;43.862;18.430;2022-10-31T05:02:59;8.10;99.90
63771;DHT22;60282;43.862;18.430;2022-10-31T05:05:28;8.20;99.90
63771;DHT22;60282;43.862;18.430;2022-10-31T05:07:58;8.20;99.90
63771;DHT22;60282;43.862;18.430;2022-10-31T05:10:27;8.20;99.90
63771;DHT22;60282;43.862;18.430;2022-10-31T05:12:56;8.10;99.90
63771;DHT22;60282;43.862;18.430;2022-10-31T05:15:24;8.20;99.90
63771;DHT22;60282;43.862;18.430;2022-10-31T05:17:51;8.20;99.90
63771;DHT22;60282;43.862;18.430;2022-10-31T05:20:19;8.20;99.90
63771;DHT22;60282;43.862;18.430;2022-10-31T05:22:46;8.20;99.90
63771;DHT22;60282;43.862;18.430;2022-10-31T05:25:13;8.20;99.90
63771;DHT22;60282;43.862;18.430;2022-10-31T05:27:41;8.30;99.90
63771;DHT22;60282;43.862;18.430;2022-10-31T05:30:09;8.10;99.90
63771;DHT22;60282;43.862;18.430;2022-10-31T05:32:43;8.20;99.90
63771;DHT22;60282;43.862;18.430;2022-10-31T05:35:13;8.30;99.90
63771;DHT22;60282;43.862;18.430;2022-10-31T05:37:39;8.20;99.90
63771;DHT22;60282;43.862;18.430;2022-10-31T05:40:08;8.30;99.90
63771;DHT22;60282;43.862;18.430;2022-10-31T05:42:34;8.30;99.90
63771;DHT22;60282;43.862;18.430;2022-10-31T05:45:00;8.30;99.90
63771;DHT22;60282;43.862;18.430;2022-10-31T05:47:26;8.30;99.90
63771;DHT22;60282;43.862;18.430;2022-10-31T05:49:52;8.30;99.90
63771;DHT22;60282;43.862;18.430;2022-10-31T05:52:18;8.30;99.90
63771;DHT22;60282;43.862;18.430;2022-10-31T05:54:44;8.30;99.90
63771;DHT22;60282;43.862;18.430;2022-10-31T05:57:10;8.30;99.90
63771;DHT22;60282;43.862;18.430;2022-10-31T05:59:35;8.30;99.90
63771;DHT22;60282;43.862;18.430;2022-10-31T06:02:01;8.30;99.90
63771;DHT22;60282;43.862;18.430;2022-10-31T06:04:27;8.40;99.90
63771;DHT22;60282;43.862;18.430;2022-10-31T06:07:00;8.40;99.90
63771;DHT22;60282;43.862;18.430;2022-10-31T06:09:26;8.40;99.90
63771;DHT22;60282;43.862;18.430;2022-10-31T06:11:53;8.50;99.90
63771;DHT22;60282;43.862;18.430;2022-10-31T06:14:19;8.50;99.90
63771;DHT22;60282;43.862;18.430;2022-10-31T06:16:46;10.30;99.90
63771;DHT22;60282;43.862;18.430;2022-10-31T06:19:12;8.60;99.90
63771;DHT22;60282;43.862;18.430;2022-10-31T06:21:38;8.60;99.90
63771;DHT22;60282;43.862;18.430;2022-10-31T06:24:18;8.70;99.90
63771;DHT22;60282;43.862;18.430;2022-10-31T06:26:43;8.70;99.90
63771;DHT22;60282;43.862;18.430;2022-10-31T06:29:11;7.90;99.90
63771;DHT22;60282;43.862;18.430;2022-10-31T06:31:40;8.90;99.90
63771;DHT22;60282;43.862;18.430;2022-10-31T06:34:18;9.20;99.90
63771;DHT22;60282;43.862;18.430;2022-10-31T06:39:24;9.00;99.90
63771;DHT22;60282;43.862;18.430;2022-10-31T06:41:50;8.30;99.90
63771;DHT22;60282;43.862;18.430;2022-10-31T06:44:15;9.30;99.90
63771;DHT22;60282;43.862;18.430;2022-10-31T06:54:54;10.50;99.90
63771;DHT22;60282;43.862;18.430;2022-10-31T06:57:20;10.40;99.90
63771;DHT22;60282;43.862;18.430;2022-10-31T06:59:46;10.30;99.90
63771;DHT22;60282;43.862;18.430;2022-10-31T07:02:12;10.40;99.90
63771;DHT22;60282;43.862;18.430;2022-10-31T07:05:07;10.40;99.90
63771;DHT22;60282;43.862;18.430;2022-10-31T07:07:33;10.40;99.90
63771;DHT22;60282;43.862;18.430;2022-10-31T07:09:58;10.50;99.90
63771;DHT22;60282;43.862;18.430;2022-10-31T07:12:24;10.40;99.90
63771;DHT22;60282;43.862;18.430;2022-10-31T07:14:53;10.50;99.90
63771;DHT22;60282;43.862;18.430;2022-10-31T07:17:25;10.50;99.90
63771;DHT22;60282;43.862;18.430;2022-10-31T07:19:51;10.60;99.90
63771;DHT22;60282;43.862;18.430;2022-10-31T07:22:37;10.70;99.90
63771;DHT22;60282;43.862;18.430;2022-10-31T07:25:06;10.70;99.90
63771;DHT22;60282;43.862;18.430;2022-10-31T07:27:36;10.60;99.90
63771;DHT22;60282;43.862;18.430;2022-10-31T07:30:03;11.10;99.90
63771;DHT22;60282;43.862;18.430;2022-10-31T07:32:38;11.30;99.90
63771;DHT22;60282;43.862;18.430;2022-10-31T07:35:05;11.40;99.90
63771;DHT22;60282;43.862;18.430;2022-10-31T07:37:31;11.40;99.90
63771;DHT22;60282;43.862;18.430;2022-10-31T07:40:05;11.50;99.90
63771;DHT22;60282;43.862;18.430;2022-10-31T07:42:41;11.60;99.90
63771;DHT22;60282;43.862;18.430;2022-10-31T07:45:12;11.60;99.90
63771;DHT22;60282;43.862;18.430;2022-10-31T07:50:10;11.60;99.90
63771;DHT22;60282;43.862;18.430;2022-10-31T07:52:37;11.60;99.90
63771;DHT22;60282;43.862;18.430;2022-10-31T07:55:09;12.80;99.90
63771;DHT22;60282;43.862;18.430;2022-10-31T07:57:35;11.90;99.90
63771;DHT22;60282;43.862;18.430;2022-10-31T08:00:07;12.00;99.90
63771;DHT22;60282;43.862;18.430;2022-10-31T08:02:35;12.10;99.90
63771;DHT22;60282;43.862;18.430;2022-10-31T08:05:01;12.10;99.90
63771;DHT22;60282;43.862;18.430;2022-10-31T08:07:28;14.70;99.90
63771;DHT22;60282;43.862;18.430;2022-10-31T08:09:55;12.40;99.90
63771;DHT22;60282;43.862;18.430;2022-10-31T08:12:22;12.60;99.90
63771;DHT22;60282;43.862;18.430;2022-10-31T08:14:47;12.70;99.90
63771;DHT22;60282;43.862;18.430;2022-10-31T08:17:13;12.80;99.90
63771;DHT22;60282;43.862;18.430;2022-10-31T08:19:39;12.90;99.90
63771;DHT22;60282;43.862;18.430;2022-10-31T08:22:04;13.10;99.90
63771;DHT22;60282;43.862;18.430;2022-10-31T08:24:30;13.10;99.90
63771;DHT22;60282;43.862;18.430;2022-10-31T08:26:56;13.30;99.90
63771;DHT22;60282;43.862;18.430;2022-10-31T08:29:22;13.50;99.90
63771;DHT22;60282;43.862;18.430;2022-10-31T08:31:47;13.60;99.90
63771;DHT22;60282;43.862;18.430;2022-10-31T08:34:13;13.60;99.90
63771;DHT22;60282;43.862;18.430;2022-10-31T08:36:44;13.80;99.90
63771;DHT22;60282;43.862;18.430;2022-10-31T08:39:12;13.90;99.90
63771;DHT22;60282;43.862;18.430;2022-10-31T08:41:38;14.00;99.90
63771;DHT22;60282;43.862;18.430;2022-10-31T08:44:04;14.10;99.90
63771;DHT22;60282;43.862;18.430;2022-10-31T08:46:31;14.30;99.90
63771;DHT22;60282;43.862;18.430;2022-10-31T08:48:57;14.40;99.90
63771;DHT22;60282;43.862;18.430;2022-10-31T08:51:23;14.60;99.90
63771;DHT22;60282;43.862;18.430;2022-10-31T08:53:48;14.70;99.90
63771;DHT22;60282;43.862;18.430;2022-10-31T08:56:14;14.70;99.90
63771;DHT22;60282;43.862;18.430;2022-10-31T08:58:40;14.70;99.90
63771;DHT22;60282;43.862;18.430;2022-10-31T09:01:06;14.80;99.90
63771;DHT22;60282;43.862;18.430;2022-10-31T09:03:32;15.00;99.90
63771;DHT22;60282;43.862;18.430;2022-10-31T09:05:59;15.10;99.90
63771;DHT22;60282;43.862;18.430;2022-10-31T09:08:26;15.30;99.90
63771;DHT22;60282;43.862;18.430;2022-10-31T09:10:52;15.40;99.90
63771;DHT22;60282;43.862;18.430;2022-10-31T09:13:21;15.50;99.90
63771;DHT22;60282;43.862;18.430;2022-10-31T09:15:48;15.60;99.90
63771;DHT22;60282;43.862;18.430;2022-10-31T09:18:17;15.70;99.90
63771;DHT22;60282;43.862;18.430;2022-10-31T09:20:46;15.80;99.90
63771;DHT22;60282;43.862;18.430;2022-10-31T09:23:18;16.00;99.90
63771;DHT22;60282;43.862;18.430;2022-10-31T09:25:44;16.10;99.90
63771;DHT22;60282;43.862;18.430;2022-10-31T09:28:13;16.30;99.90
63771;DHT22;60282;43.862;18.430;2022-10-31T09:30:39;16.40;99.90
63771;DHT22;60282;43.862;18.430;2022-10-31T09:33:12;16.50;99.90
63771;DHT22;60282;43.862;18.430;2022-10-31T09:35:39;16.70;99.90
63771;DHT22;60282;43.862;18.430;2022-10-31T09:38:23;16.80;99.70
63771;DHT22;60282;43.862;18.430;2022-10-31T09:43:39;17.10;99.10
63771;DHT22;60282;43.862;18.430;2022-10-31T09:49:02;17.30;97.90
63771;DHT22;60282;43.862;18.430;2022-10-31T09:51:37;17.30;98.00
63771;DHT22;60282;43.862;18.430;2022-10-31T09:54:21;17.50;97.10
63771;DHT22;60282;43.862;18.430;2022-10-31T09:56:50;17.60;96.90
63771;DHT22;60282;43.862;18.430;2022-10-31T09:59:25;17.70;97.00
63771;DHT22;60282;43.862;18.430;2022-10-31T10:02:06;17.90;96.60
63771;DHT22;60282;43.862;18.430;2022-10-31T10:04:47;17.90;96.70
63771;DHT22;60282;43.862;18.430;2022-10-31T10:10:14;18.10;96.10
63771;DHT22;60282;43.862;18.430;2022-10-31T10:15:36;20.30;95.80
63771;DHT22;60282;43.862;18.430;2022-10-31T10:20:58;18.40;94.60
63771;DHT22;60282;43.862;18.430;2022-10-31T10:26:37;18.90;94.20
63771;DHT22;60282;43.862;18.430;2022-10-31T10:29:27;19.10;94.00
63771;DHT22;60282;43.862;18.430;2022-10-31T10:31:58;19.40;93.80
63771;DHT22;60282;43.862;18.430;2022-10-31T10:34:44;19.60;93.50
63771;DHT22;60282;43.862;18.430;2022-10-31T10:39:49;20.00;92.10
63771;DHT22;60282;43.862;18.430;2022-10-31T10:42:16;20.10;91.60
63771;DHT22;60282;43.862;18.430;2022-10-31T10:45:15;20.10;91.20
63771;DHT22;60282;43.862;18.430;2022-10-31T10:51:28;19.10;89.90
63771;DHT22;60282;43.862;18.430;2022-10-31T10:59:23;20.70;89.90
63771;DHT22;60282;43.862;18.430;2022-10-31T11:01:51;20.70;89.30
63771;DHT22;60282;43.862;18.430;2022-10-31T11:04:32;20.80;90.20
63771;DHT22;60282;43.862;18.430;2022-10-31T11:07:00;20.80;89.80
63771;DHT22;60282;43.862;18.430;2022-10-31T11:09:26;21.00;88.70
63771;DHT22;60282;43.862;18.430;2022-10-31T11:11:52;21.20;88.90
63771;DHT22;60282;43.862;18.430;2022-10-31T11:14:19;21.40;87.90
63771;DHT22;60282;43.862;18.430;2022-10-31T11:16:49;21.50;87.00
63771;DHT22;60282;43.862;18.430;2022-10-31T11:19:19;21.70;86.70
63771;DHT22;60282;43.862;18.430;2022-10-31T11:21:47;21.90;86.50
63771;DHT22;60282;43.862;18.430;2022-10-31T11:24:24;22.20;86.50
63771;DHT22;60282;43.862;18.430;2022-10-31T11:27:09;22.50;84.20
63771;DHT22;60282;43.862;18.430;2022-10-31T11:29:39;22.50;84.40
63771;DHT22;60282;43.862;18.430;2022-10-31T11:32:05;22.80;83.30
63771;DHT22;60282;43.862;18.430;2022-10-31T11:34:33;22.90;81.10
63771;DHT22;60282;43.862;18.430;2022-10-31T11:37:13;23.10;80.40
63771;DHT22;60282;43.862;18.430;2022-10-31T11:39:43;23.30;78.30
63771;DHT22;60282;43.862;18.430;2022-10-31T11:42:10;23.30;78.40
63771;DHT22;60282;43.862;18.430;2022-10-31T11:44:36;23.60;78.00
63771;DHT22;60282;43.862;18.430;2022-10-31T11:47:12;23.70;76.70
63771;DHT22;60282;43.862;18.430;2022-10-31T11:49:41;23.80;75.90
63771;DHT22;60282;43.862;18.430;2022-10-31T11:52:16;24.10;75.90
63771;DHT22;60282;43.862;18.430;2022-10-31T11:54:57;24.30;76.50
63771;DHT22;60282;43.862;18.430;2022-10-31T11:57:32;24.40;75.30
63771;DHT22;60282;43.862;18.430;2022-10-31T12:00:03;24.30;72.80
63771;DHT22;60282;43.862;18.430;2022-10-31T12:02:30;24.70;71.90
63771;DHT22;60282;43.862;18.430;2022-10-31T12:05:18;24.40;70.80
63771;DHT22;60282;43.862;18.430;2022-10-31T12:07:45;24.40;70.90
63771;DHT22;60282;43.862;18.430;2022-10-31T12:10:12;24.60;70.10
63771;DHT22;60282;43.862;18.430;2022-10-31T12:15:33;24.70;70.60
63771;DHT22;60282;43.862;18.430;2022-10-31T13:07:34;27.10;58.40
63771;DHT22;60282;43.862;18.430;2022-10-31T13:13:21;29.60;59.20
63771;DHT22;60282;43.862;18.430;2022-10-31T13:16:35;29.00;59.30
63771;DHT22;60282;43.862;18.430;2022-10-31T13:30:12;27.60;58.80
63771;DHT22;60282;43.862;18.430;2022-10-31T13:47:02;28.30;57.70
63771;DHT22;60282;43.862;18.430;2022-10-31T13:54:57;29.00;57.30
63771;DHT22;60282;43.862;18.430;2022-10-31T14:02:49;29.40;56.90
63771;DHT22;60282;43.862;18.430;2022-10-31T14:05:31;29.50;56.40
63771;DHT22;60282;43.862;18.430;2022-10-31T14:08:01;29.60;56.60
63771;DHT22;60282;43.862;18.430;2022-10-31T14:10:37;29.70;56.50
63771;DHT22;60282;43.862;18.430;2022-10-31T14:13:07;29.90;56.30
63771;DHT22;60282;43.862;18.430;2022-10-31T14:15:36;29.70;55.00
63771;DHT22;60282;43.862;18.430;2022-10-31T14:18:05;29.70;55.40
63771;DHT22;60282;43.862;18.430;2022-10-31T14:20:42;29.50;55.70
63771;DHT22;60282;43.862;18.430;2022-10-31T14:23:37;29.40;56.50
63771;DHT22;60282;43.862;18.430;2022-10-31T14:26:07;30.30;56.80
63771;DHT22;60282;43.862;18.430;2022-10-31T14:28:44;29.30;55.50
63771;DHT22;60282;43.862;18.430;2022-10-31T14:31:32;29.30;55.60
63771;DHT22;60282;43.862;18.430;2022-10-31T14:34:17;29.50;56.50
63771;DHT22;60282;43.862;18.430;2022-10-31T14:42:57;28.30;56.20
63771;DHT22;60282;43.862;18.430;2022-10-31T14:51:01;27.50;57.10
63771;DHT22;60282;43.862;18.430;2022-10-31T14:53:35;27.30;57.30
63771;DHT22;60282;43.862;18.430;2022-10-31T14:56:02;27.00;57.60
63771;DHT22;60282;43.862;18.430;2022-10-31T14:58:36;26.60;58.30
63771;DHT22;60282;43.862;18.430;2022-10-31T15:01:04;26.10;58.60
63771;DHT22;60282;43.862;18.430;2022-10-31T15:03:33;25.70;59.40
63771;DHT22;60282;43.862;18.430;2022-10-31T15:06:15;25.30;59.90
63771;DHT22;60282;43.862;18.430;2022-10-31T15:11:16;24.40;61.50
63771;DHT22;60282;43.862;18.430;2022-10-31T15:13:50;23.80;62.70
63771;DHT22;60282;43.862;18.430;2022-10-31T15:16:27;23.20;63.60
63771;DHT22;60282;43.862;18.430;2022-10-31T15:19:03;22.80;64.80
63771;DHT22;60282;43.862;18.430;2022-10-31T15:21:30;22.40;65.60
63771;DHT22;60282;43.862;18.430;2022-10-31T15:23:59;22.00;66.80
63771;DHT22;60282;43.862;18.430;2022-10-31T15:26:46;21.60;67.70
63771;DHT22;60282;43.862;18.430;2022-10-31T15:29:15;21.30;68.80
63771;DHT22;60282;43.862;18.430;2022-10-31T15:31:56;20.90;69.30
63771;DHT22;60282;43.862;18.430;2022-10-31T15:34:39;20.50;70.10
63771;DHT22;60282;43.862;18.430;2022-10-31T15:37:16;20.20;71.10
63771;DHT22;60282;43.862;18.430;2022-10-31T15:39:49;19.90;72.70
63771;DHT22;60282;43.862;18.430;2022-10-31T15:42:28;19.70;73.60
63771;DHT22;60282;43.862;18.430;2022-10-31T15:47:35;19.10;75.40
63771;DHT22;60282;43.862;18.430;2022-10-31T15:50:03;19.00;76.10
63771;DHT22;60282;43.862;18.430;2022-10-31T15:55:25;18.60;78.00
63771;DHT22;60282;43.862;18.430;2022-10-31T15:57:56;18.40;79.10
63771;DHT22;60282;43.862;18.430;2022-10-31T16:00:32;18.20;80.20
63771;DHT22;60282;43.862;18.430;2022-10-31T16:05:51;17.90;82.30
63771;DHT22;60282;43.862;18.430;2022-10-31T16:13:37;17.50;86.50
63771;DHT22;60282;43.862;18.430;2022-10-31T16:16:11;17.40;88.20
63771;DHT22;60282;43.862;18.430;2022-10-31T16:18:39;17.30;90.00
63771;DHT22;60282;43.862;18.430;2022-10-31T16:21:06;17.20;90.70
63771;DHT22;60282;43.862;18.430;2022-10-31T16:23:33;17.10;91.40
63771;DHT22;60282;43.862;18.430;2022-10-31T16:25:59;16.90;92.10
63771;DHT22;60282;43.862;18.430;2022-10-31T16:28:26;16.90;92.40
63771;DHT22;60282;43.862;18.430;2022-10-31T16:30:54;16.80;93.10
63771;DHT22;60282;43.862;18.430;2022-10-31T16:33:36;16.70;93.50
63771;DHT22;60282;43.862;18.430;2022-10-31T16:38:55;16.70;94.90
63771;DHT22;60282;43.862;18.430;2022-10-31T16:41:21;16.30;95.00
63771;DHT22;60282;43.862;18.430;2022-10-31T16:43:47;16.60;95.60
63771;DHT22;60282;43.862;18.430;2022-10-31T16:46:15;16.50;95.90
63771;DHT22;60282;43.862;18.430;2022-10-31T16:48:43;16.50;95.30
63771;DHT22;60282;43.862;18.430;2022-10-31T16:51:11;16.60;95.40
63771;DHT22;60282;43.862;18.430;2022-10-31T16:53:37;16.60;95.60
63771;DHT22;60282;43.862;18.430;2022-10-31T16:56:04;16.60;95.50
63771;DHT22;60282;43.862;18.430;2022-10-31T16:58:34;16.70;95.70
63771;DHT22;60282;43.862;18.430;2022-10-31T17:01:05;16.70;95.80
63771;DHT22;60282;43.862;18.430;2022-10-31T17:03:32;16.60;95.90
63771;DHT22;60282;43.862;18.430;2022-10-31T17:05:58;16.60;96.00
63771;DHT22;60282;43.862;18.430;2022-10-31T17:08:24;16.50;96.30
63771;DHT22;60282;43.862;18.430;2022-10-31T17:10:56;16.50;96.50
63771;DHT22;60282;43.862;18.430;2022-10-31T17:13:25;16.50;97.10
63771;DHT22;60282;43.862;18.430;2022-10-31T17:15:54;16.40;96.90
63771;DHT22;60282;43.862;18.430;2022-10-31T17:18:20;16.30;97.10
63771;DHT22;60282;43.862;18.430;2022-10-31T17:20:46;16.30;97.60
63771;DHT22;60282;43.862;18.430;2022-10-31T17:23:14;16.30;97.60
63771;DHT22;60282;43.862;18.430;2022-10-31T17:25:52;16.20;97.60
63771;DHT22;60282;43.862;18.430;2022-10-31T17:28:18;16.50;98.00
63771;DHT22;60282;43.862;18.430;2022-10-31T17:30:43;16.10;98.00
63771;DHT22;60282;43.862;18.430;2022-10-31T17:33:13;16.00;98.50
63771;DHT22;60282;43.862;18.430;2022-10-31T17:35:42;16.00;98.30
63771;DHT22;60282;43.862;18.430;2022-10-31T17:38:09;16.00;98.50
63771;DHT22;60282;43.862;18.430;2022-10-31T17:40:37;15.90;98.60
63771;DHT22;60282;43.862;18.430;2022-10-31T17:43:03;17.80;99.20
63771;DHT22;60282;43.862;18.430;2022-10-31T17:45:32;15.80;99.30
63771;DHT22;60282;43.862;18.430;2022-10-31T17:47:58;15.70;99.40
63771;DHT22;60282;43.862;18.430;2022-10-31T17:50:25;15.70;99.60
63771;DHT22;60282;43.862;18.430;2022-10-31T17:52:51;15.70;99.70
63771;DHT22;60282;43.862;18.430;2022-10-31T17:55:18;16.20;99.90
63771;DHT22;60282;43.862;18.430;2022-10-31T17:57:44;15.50;99.90
63771;DHT22;60282;43.862;18.430;2022-10-31T18:00:15;15.40;99.90
63771;DHT22;60282;43.862;18.430;2022-10-31T18:02:41;15.30;99.90
63771;DHT22;60282;43.862;18.430;2022-10-31T18:05:07;15.30;99.90
63771;DHT22;60282;43.862;18.430;2022-10-31T18:07:36;15.20;99.90
63771;DHT22;60282;43.862;18.430;2022-10-31T18:10:03;15.10;99.90
63771;DHT22;60282;43.862;18.430;2022-10-31T18:12:29;15.10;99.90
63771;DHT22;60282;43.862;18.430;2022-10-31T18:14:57;15.00;99.90
63771;DHT22;60282;43.862;18.430;2022-10-31T18:17:23;15.00;99.90
63771;DHT22;60282;43.862;18.430;2022-10-31T18:19:49;15.00;99.90
63771;DHT22;60282;43.862;18.430;2022-10-31T18:22:15;15.00;99.90
63771;DHT22;60282;43.862;18.430;2022-10-31T18:24:43;15.90;99.90
63771;DHT22;60282;43.862;18.430;2022-10-31T18:27:09;14.90;99.90
63771;DHT22;60282;43.862;18.430;2022-10-31T18:29:35;14.90;99.90
63771;DHT22;60282;43.862;18.430;2022-10-31T18:32:01;14.90;99.90
63771;DHT22;60282;43.862;18.430;2022-10-31T18:34:27;14.70;99.90
63771;DHT22;60282;43.862;18.430;2022-10-31T18:36:52;14.70;99.90
63771;DHT22;60282;43.862;18.430;2022-10-31T18:39:18;14.60;99.90
63771;DHT22;60282;43.862;18.430;2022-10-31T18:41:44;14.50;99.90
63771;DHT22;60282;43.862;18.430;2022-10-31T18:44:12;14.50;99.90
63771;DHT22;60282;43.862;18.430;2022-10-31T18:46:41;14.50;99.90
63771;DHT22;60282;43.862;18.430;2022-10-31T18:49:42;14.40;99.90
63771;DHT22;60282;43.862;18.430;2022-10-31T19:03:09;14.20;99.90
63771;DHT22;60282;43.862;18.430;2022-10-31T19:05:35;16.30;99.90
63771;DHT22;60282;43.862;18.430;2022-10-31T19:08:01;14.20;99.90
63771;DHT22;60282;43.862;18.430;2022-10-31T19:10:27;14.10;99.90
63771;DHT22;60282;43.862;18.430;2022-10-31T19:12:53;14.10;99.90
63771;DHT22;60282;43.862;18.430;2022-10-31T19:15:18;14.00;99.90
63771;DHT22;60282;43.862;18.430;2022-10-31T19:17:44;14.10;99.90